Time;durP1;ratioP1;P1;durP2;ratioP2;P2;SDS_P1;SDS_P2;PMS_P1;PMS_P2;Temp;Humidity;BMP_temperature;BMP_pressure;BME280_temperature;BME280_humidity;BME280_pressure;Samples;Min_cycle;Max_cycle;Signal;HPM_P1;HPM_P2
2023/08/21 00:00:16;;;;;;;13.32;11.93;;;21.90;99.90;;;22.64;100.00;98428.81;10387918;28;20230;-66
2023/08/21 00:05:21;;;;;;;12.00;11.00;;;21.90;99.90;;;22.67;100.00;98435.81;10385512;28;20244;-66
2023/08/21 00:10:24;;;;;;;12.88;11.77;;;21.90;99.90;;;22.61;100.00;98441.78;10387599;28;20229;-67
2023/08/21 00:15:27;;;;;;;12.88;11.88;;;21.80;99.90;;;22.40;100.00;98437.00;10387978;28;20265;-67
2023/08/21 00:20:32;;;;;;;12.35;11.35;;;21.70;99.90;;;22.45;100.00;98424.09;10384880;28;21314;-67
2023/08/21 00:25:35;;;;;;;13.38;12.35;;;21.70;99.90;;;22.44;100.00;98420.63;10386248;28;20731;-67
2023/08/21 00:30:38;;;;;;;13.05;11.95;;;21.70;99.90;;;22.45;100.00;98409.34;10388593;28;20236;-66
2023/08/21 00:35:43;;;;;;;12.93;11.88;;;21.70;99.90;;;22.35;100.00;98417.84;10385413;28;20286;-66
2023/08/21 00:40:46;;;;;;;12.57;11.52;;;21.60;99.90;;;22.30;100.00;98419.47;10383068;28;20716;-66
2023/08/21 00:45:51;;;;;;;13.52;12.35;;;21.50;99.90;;;22.29;100.00;98416.81;10384604;28;20381;-66
2023/08/21 00:50:55;;;;;;;13.38;12.18;;;21.50;99.90;;;22.29;100.00;98424.63;10386973;28;20233;-66
2023/08/21 00:55:59;;;;;;;14.20;12.88;;;21.50;99.90;;;22.20;100.00;98420.13;10386196;28;20735;-66
2023/08/21 01:01:04;;;;;;;12.20;11.27;;;21.50;99.90;;;22.16;100.00;98420.88;10385548;28;20245;-66
2023/08/21 01:06:09;;;;;;;13.32;12.07;;;21.40;99.90;;;22.19;100.00;98421.84;10385502;28;20230;-67
2023/08/21 01:11:19;;;;;;;13.15;12.05;;;21.40;99.90;;;22.22;100.00;98421.91;10384257;28;20236;-66
2023/08/21 01:16:25;;;;;;;13.18;12.07;;;21.50;99.90;;;22.17;100.00;98425.25;10380817;28;20724;-66
2023/08/21 01:21:29;;;;;;;13.05;11.95;;;21.40;99.90;;;22.17;100.00;98422.63;10382662;28;20226;-66
2023/08/21 01:26:35;;;;;;;13.55;12.45;;;21.40;99.90;;;22.17;100.00;98418.34;10385491;28;20226;-66
2023/08/21 01:31:41;;;;;;;13.98;12.88;;;21.40;99.90;;;22.15;100.00;98424.31;10382618;28;21266;-66
2023/08/21 01:36:46;;;;;;;14.60;13.30;;;21.30;99.90;;;22.04;100.00;98430.22;10387190;28;20318;-66
2023/08/21 01:41:51;;;;;;;12.90;11.80;;;21.20;99.90;;;21.85;100.00;98430.66;10385147;28;20230;-66
2023/08/21 01:46:54;;;;;;;14.27;12.95;;;21.10;99.90;;;21.83;100.00;98427.13;10380608;28;20911;-66
2023/08/21 01:51:57;;;;;;;13.05;11.95;;;21.00;99.90;;;21.93;100.00;98421.28;10381816;28;20226;-66
2023/08/21 01:57:02;;;;;;;13.80;12.45;;;21.10;99.90;;;21.87;100.00;98418.56;10386447;28;20229;-66
2023/08/21 02:02:05;;;;;;;13.57;12.48;;;21.10;99.90;;;21.79;100.00;98425.31;10382503;28;20732;-67
2023/08/21 02:07:09;;;;;;;13.30;12.20;;;21.00;99.90;;;21.86;100.00;98422.00;10385187;28;20276;-67
2023/08/21 02:12:13;;;;;;;13.35;12.25;;;21.10;99.90;;;21.89;100.00;98421.19;10380501;28;20230;-67
2023/08/21 02:17:16;;;;;;;13.73;12.50;;;21.10;99.90;;;21.89;100.00;98421.19;10380512;28;20256;-67
2023/08/21 02:22:19;;;;;;;13.05;11.93;;;21.00;99.90;;;21.75;100.00;98419.19;10380560;28;20296;-67
2023/08/21 02:27:24;;;;;;;14.35;13.15;;;21.00;99.90;;;21.71;100.00;98411.25;10382532;28;20634;-67
2023/08/21 02:32:27;;;;;;;12.85;11.85;;;21.00;99.90;;;21.72;100.00;98413.00;10380016;28;20230;-67
2023/08/21 02:37:30;;;;;;;13.60;12.45;;;20.90;99.90;;;21.72;100.00;98418.22;10383427;28;20237;-67
2023/08/21 02:42:35;;;;;;;12.75;11.73;;;20.90;99.90;;;21.71;100.00;98422.53;10382593;28;20301;-67
2023/08/21 02:47:39;;;;;;;13.38;12.32;;;20.90;99.90;;;21.67;100.00;98419.84;10380163;28;20237;-67
2023/08/21 02:52:43;;;;;;;13.23;12.13;;;20.90;99.90;;;21.64;100.00;98419.78;10379750;28;20324;-67
2023/08/21 02:57:47;;;;;;;14.38;13.13;;;20.80;99.90;;;21.51;100.00;98418.63;10384132;28;20237;-67
2023/08/21 03:02:50;;;;;;;13.82;12.75;;;20.70;99.90;;;21.57;100.00;98419.63;10380854;28;20261;-67
2023/08/21 03:07:54;;;;;;;13.30;12.10;;;20.70;99.90;;;21.65;100.00;98418.94;10381157;28;20870;-67
2023/08/21 03:12:58;;;;;;;12.88;11.68;;;20.80;99.90;;;21.58;100.00;98418.81;10379711;28;20592;-67
2023/08/21 03:18:01;;;;;;;13.10;11.95;;;20.70;99.90;;;21.48;100.00;98408.16;10379769;28;20252;-67
2023/08/21 03:23:04;;;;;;;12.95;11.82;;;20.60;99.90;;;21.47;100.00;98409.00;10378781;28;20308;-67
2023/08/21 03:28:09;;;;;;;13.05;12.05;;;20.60;99.90;;;21.45;100.00;98414.16;10379611;28;20233;-67
2023/08/21 03:33:12;;;;;;;13.43;12.43;;;20.60;99.90;;;21.36;100.00;98412.22;10381087;28;20607;-67
2023/08/21 03:38:15;;;;;;;14.60;13.32;;;20.60;99.90;;;21.41;100.00;98420.16;10375380;28;20264;-67
2023/08/21 03:43:20;;;;;;;13.60;12.48;;;20.60;99.90;;;21.37;100.00;98423.50;10382350;28;20233;-67
2023/08/21 03:48:23;;;;;;;14.07;12.60;;;20.60;99.90;;;21.39;100.00;98421.81;10377450;28;20226;-67
2023/08/21 03:53:27;;;;;;;14.27;12.82;;;20.60;99.90;;;21.33;100.00;98430.31;10379330;28;20245;-67
2023/08/21 03:58:33;;;;;;;14.07;12.88;;;20.50;99.90;;;21.27;100.00;98434.50;10377871;28;20240;-67
2023/08/21 04:03:36;;;;;;;13.18;12.18;;;20.40;99.90;;;21.27;100.00;98434.50;10375481;28;20229;-67
2023/08/21 04:08:39;;;;;;;12.88;11.65;;;20.40;99.90;;;21.23;100.00;98437.88;10379707;28;20244;-67
2023/08/21 04:13:44;;;;;;;12.75;11.48;;;20.40;99.90;;;21.22;100.00;98443.91;10377109;28;20227;-67
2023/08/21 04:18:47;;;;;;;13.52;12.40;;;20.40;99.90;;;21.17;100.00;98450.72;10378400;28;20218;-67
2023/08/21 04:23:50;;;;;;;13.55;12.35;;;20.40;99.90;;;21.25;100.00;98457.00;10379034;28;20244;-67
2023/08/21 04:28:55;;;;;;;13.90;12.60;;;20.40;99.90;;;21.21;100.00;98453.44;10378637;28;20282;-67
2023/08/21 04:33:58;;;;;;;13.80;12.40;;;20.40;99.90;;;21.22;100.00;98457.78;10381392;28;20232;-67
2023/08/21 04:39:01;;;;;;;13.55;12.30;;;20.40;99.90;;;21.07;100.00;98465.22;10385417;28;20226;-67
2023/08/21 04:44:05;;;;;;;14.00;12.80;;;20.30;99.90;;;21.07;100.00;98466.09;10386551;28;20936;-68
2023/08/21 04:49:09;;;;;;;14.57;13.20;;;20.30;99.90;;;21.10;100.00;98466.16;10384586;28;20221;-66
2023/08/21 04:54:12;;;;;;;13.38;12.25;;;20.30;99.90;;;21.20;100.00;98471.59;10386067;28;20237;-66
2023/08/21 04:59:17;;;;;;;13.70;12.50;;;20.40;99.90;;;21.14;100.00;98473.19;10386255;28;20717;-67
2023/08/21 05:04:20;;;;;;;13.20;12.07;;;20.30;99.90;;;21.23;100.00;98479.47;10383875;28;20966;-68
2023/08/21 05:09:23;;;;;;;13.18;11.98;;;20.40;99.90;;;21.26;100.00;98479.53;10397729;28;20233;-68
2023/08/21 05:14:28;;;;;;;12.68;11.68;;;20.50;99.90;;;21.27;100.00;98479.59;10394155;28;20230;-69
2023/08/21 05:19:33;;;;;;;12.90;11.85;;;20.50;99.90;;;21.39;100.00;98472.97;10392376;28;20222;-68
2023/08/21 05:24:37;;;;;;;13.32;12.23;;;20.60;99.90;;;21.48;100.00;98479.25;10401469;28;20229;-68
2023/08/21 05:29:41;;;;;;;14.15;12.80;;;20.70;99.90;;;21.91;100.00;98481.97;10403147;28;20229;-67
2023/08/21 05:34:45;;;;;;;11.52;10.63;;;20.90;99.90;;;22.66;100.00;98480.94;10398635;28;20232;-68
2023/08/21 05:39:48;;;;;;;10.90;9.90;;;21.30;99.90;;;23.26;100.00;98476.81;10402887;28;20231;-68
2023/08/21 05:44:53;;;;;;;10.18;9.38;;;21.80;99.90;;;23.79;100.00;98477.69;10401903;28;20228;-68
2023/08/21 05:49:56;;;;;;;9.55;8.70;;;22.70;99.90;;;24.46;100.00;98482.94;10397613;28;20222;-68
2023/08/21 05:54:59;;;;;;;9.55;8.70;;;23.50;99.90;;;24.73;96.92;98487.63;10400179;28;20233;-67
2023/08/21 06:00:08;;;;;;;8.48;7.78;;;23.80;99.90;;;25.45;94.17;98484.84;10396969;28;20225;-70
2023/08/21 06:05:11;;;;;;;9.35;8.57;;;24.10;99.90;;;25.78;89.45;98496.41;10396916;28;20237;-68
2023/08/21 06:10:14;;;;;;;8.82;8.02;;;24.50;99.90;;;26.24;86.66;98500.22;10397946;28;20225;-68
2023/08/21 06:15:19;;;;;;;8.50;7.95;;;24.50;99.90;;;26.38;86.14;98502.88;10388694;28;20375;-68
2023/08/21 06:20:22;;;;;;;8.75;7.95;;;24.50;99.90;;;26.89;84.20;98501.34;10384134;28;20714;-68
2023/08/21 06:25:25;;;;;;;9.02;8.30;;;24.70;99.90;;;27.30;81.76;98503.19;10389220;28;21037;-69
2023/08/21 06:30:30;;;;;;;9.15;8.35;;;25.20;99.90;;;27.92;79.64;98505.81;10384026;28;20225;-68
2023/08/21 06:35:33;;;;;;;9.95;9.23;;;25.50;99.90;;;28.27;76.14;98511.88;10391637;28;20225;-68
2023/08/21 06:40:36;;;;;;;9.25;8.55;;;25.90;99.90;;;28.61;77.85;98509.09;10449192;23;20343;-68
2023/08/21 06:45:42;;;;;;;8.88;8.18;;;26.20;99.90;;;28.75;75.84;98509.03;10422823;28;20243;-68
2023/08/21 06:50:45;;;;;;;8.43;7.63;;;26.50;99.90;;;28.86;75.52;98507.22;10422743;28;20228;-68
2023/08/21 06:55:48;;;;;;;9.77;8.88;;;26.70;99.90;;;29.23;73.53;98507.03;10422743;28;20236;-69
2023/08/21 07:00:54;;;;;;;9.65;8.75;;;27.20;99.90;;;29.51;73.10;98509.44;10418378;28;20236;-69
2023/08/21 07:06:00;;;;;;;10.00;9.20;;;27.50;99.90;;;29.75;69.83;98500.47;10428349;28;20593;-68
2023/08/21 07:11:04;;;;;;;10.45;9.65;;;27.60;99.90;;;29.47;71.14;98511.22;10423593;28;20285;-68
2023/08/21 07:16:09;;;;;;;10.38;9.48;;;27.70;99.90;;;29.65;70.63;98510.22;10419796;28;20255;-68
2023/08/21 07:21:12;;;;;;;10.38;9.43;;;27.80;99.90;;;30.34;68.29;98517.47;10415416;28;20229;-71
2023/08/21 07:26:34;;;;;;;10.45;9.65;;;28.10;99.90;;;31.02;63.42;98516.59;10426481;28;20294;-70
2023/08/21 07:31:39;;;;;;;11.13;10.13;;;28.70;99.90;;;31.59;61.76;98511.31;10419626;28;20242;-70
2023/08/21 07:36:42;;;;;;;10.52;9.70;;;28.90;99.90;;;32.05;59.43;98510.50;10417433;28;20231;-70
2023/08/21 07:41:45;;;;;;;10.20;9.30;;;29.20;99.90;;;32.53;57.84;98511.34;10419620;28;20232;-70
2023/08/21 07:46:50;;;;;;;9.80;9.02;;;29.50;99.90;;;32.44;56.77;98515.94;10408231;28;20343;-71
2023/08/21 07:51:53;;;;;;;10.85;9.93;;;29.70;99.90;;;31.72;59.96;98519.91;10411757;28;20239;-72
2023/08/21 07:56:56;;;;;;;10.23;9.32;;;29.70;99.90;;;31.81;59.29;98520.63;10414348;28;20235;-71
2023/08/21 08:02:02;;;;;;;10.43;9.52;;;29.70;99.90;;;31.84;60.28;98519.69;10412805;28;20236;-71
2023/08/21 08:07:05;;;;;;;10.40;9.52;;;30.00;99.90;;;32.00;58.91;98515.91;10413206;28;20239;-71
2023/08/21 08:12:09;;;;;;;10.52;9.48;;;30.20;99.90;;;31.91;60.27;98516.09;10421799;28;20240;-70
2023/08/21 08:17:13;;;;;;;10.48;9.65;;;30.10;99.90;;;31.92;59.09;98517.81;10424072;28;20641;-70
2023/08/21 08:22:16;;;;;;;10.55;9.75;;;30.40;99.90;;;32.12;59.53;98520.09;10427310;28;20225;-71
2023/08/21 08:27:19;;;;;;;10.80;9.80;;;30.50;99.90;;;32.03;60.77;98515.84;10419835;28;20236;-71
2023/08/21 08:32:24;;;;;;;10.38;9.48;;;30.50;99.90;;;32.09;59.35;98520.16;10427083;28;20235;-72
2023/08/21 08:37:27;;;;;;;10.50;9.15;;;30.40;99.90;;;31.74;58.32;98518.13;10423793;28;20236;-71
2023/08/21 08:42:31;;;;;;;9.82;9.13;;;30.10;99.90;;;31.75;59.04;98517.22;10421524;28;20225;-71
2023/08/21 08:47:36;;;;;;;10.57;9.50;;;30.10;99.90;;;31.92;59.20;98509.03;10424260;28;20224;-71
2023/08/21 08:52:40;;;;;;;10.55;9.75;;;30.20;99.90;;;31.90;59.23;98511.66;10423345;28;20229;-72
2023/08/21 08:57:44;;;;;;;9.82;9.02;;;30.20;99.90;;;32.05;59.24;98518.44;10422388;28;20237;-72
2023/08/21 09:02:49;;;;;;;10.52;9.50;;;30.60;99.90;;;31.69;61.07;98515.56;10427277;28;20678;-71
2023/08/21 09:08:10;;;;;;;11.48;10.57;;;30.10;99.90;;;31.68;60.87;98511.19;10425877;28;20224;-71
2023/08/21 09:13:15;;;;;;;10.10;9.23;;;30.00;99.90;;;31.70;59.08;98503.19;10424735;28;20587;-71
2023/08/21 09:18:20;;;;;;;10.68;9.73;;;30.40;99.90;;;31.61;62.00;98501.59;10424373;28;20232;-70
2023/08/21 09:23:23;;;;;;;10.75;9.77;;;30.50;99.90;;;31.88;61.41;98497.59;10420587;28;20231;-71
2023/08/21 09:28:26;;;;;;;10.23;9.32;;;30.60;99.90;;;31.80;58.07;98497.72;10420293;28;20626;-72
2023/08/21 09:33:31;;;;;;;11.70;10.77;;;30.70;99.90;;;32.14;61.41;98502.44;10423847;28;20732;-72
2023/08/21 09:38:36;;;;;;;9.77;8.93;;;31.10;99.90;;;32.52;58.33;98498.16;10420871;28;20224;-72
2023/08/21 09:43:43;;;;;;;10.52;9.75;;;31.50;99.90;;;32.45;57.48;98496.50;10418185;28;20232;-71
2023/08/21 09:48:49;;;;;;;9.75;8.95;;;31.30;99.90;;;32.67;56.90;98495.16;10419650;28;20213;-71
2023/08/21 09:53:55;;;;;;;9.52;8.75;;;31.60;99.90;;;32.92;56.38;98492.84;10421245;28;20225;-71
2023/08/21 09:58:58;;;;;;;9.77;8.95;;;31.80;99.90;;;33.08;55.13;98489.88;10423734;28;20225;-71
2023/08/21 10:04:04;;;;;;;9.27;8.40;;;32.00;99.90;;;32.80;56.97;98484.31;10419838;28;20838;-71
2023/08/21 10:09:08;;;;;;;9.45;8.73;;;31.90;99.90;;;32.68;55.86;98478.41;10417303;28;20232;-71
2023/08/21 10:14:12;;;;;;;9.05;8.35;;;31.80;99.90;;;32.59;57.27;98469.75;10419780;28;20239;-72
2023/08/21 10:19:18;;;;;;;9.50;8.68;;;31.80;99.90;;;32.83;56.71;98471.00;10427998;28;20700;-69
2023/08/21 10:24:29;;;;;;;9.55;8.75;;;32.10;99.90;;;33.15;55.34;98462.34;10428513;28;20611;-69
2023/08/21 10:29:33;;;;;;;9.25;8.45;;;32.30;99.90;;;33.25;53.15;98460.31;10428035;28;20323;-69
2023/08/21 10:34:38;;;;;;;8.75;8.05;;;32.50;99.90;;;33.43;53.90;98446.63;10415091;28;20236;-70
2023/08/21 10:39:57;;;;;;;9.07;8.38;;;32.60;99.90;;;33.43;51.62;98451.91;10414836;28;20255;-69
2023/08/21 10:45:11;;;;;;;8.40;7.70;;;32.70;99.90;;;33.37;51.69;98445.00;10418785;28;20635;-69
2023/08/21 10:50:16;;;;;;;8.73;7.80;;;32.60;99.90;;;33.44;51.41;98443.03;10414716;28;20228;-69
2023/08/21 10:55:19;;;;;;;7.75;7.03;;;32.70;99.90;;;32.83;49.27;98441.88;10412960;28;20225;-67
2023/08/21 11:00:22;;;;;;;7.97;7.28;;;32.00;99.30;;;32.87;48.55;98430.28;10417290;28;20244;-68
2023/08/21 11:05:27;;;;;;;7.25;6.50;;;32.10;98.40;;;33.04;48.39;98432.56;10420984;28;20228;-68
2023/08/21 11:10:33;;;;;;;7.40;6.68;;;32.30;98.40;;;33.41;48.18;98432.53;10431339;28;20329;-68
2023/08/21 11:15:37;;;;;;;8.02;7.43;;;32.60;98.00;;;33.44;49.70;98427.13;10428042;28;20236;-67
2023/08/21 11:20:42;;;;;;;8.10;7.25;;;32.60;99.20;;;33.40;49.05;98434.31;10430097;28;21568;-67
2023/08/21 11:25:46;;;;;;;8.00;7.13;;;32.40;98.60;;;33.45;49.48;98430.66;10429820;28;20270;-68
2023/08/21 11:30:49;;;;;;;8.20;7.50;;;32.50;98.90;;;33.51;49.55;98434.03;10429284;28;20244;-68
2023/08/21 11:35:54;;;;;;;8.27;7.47;;;32.70;99.00;;;33.62;50.08;98429.34;10424417;28;20580;-68
2023/08/21 11:40:59;;;;;;;8.10;7.43;;;32.80;99.30;;;33.56;50.16;98425.97;10419047;28;20775;-68
2023/08/21 11:46:03;;;;;;;9.38;8.48;;;32.70;99.60;;;33.53;49.56;98426.06;10426561;28;20715;-68
2023/08/21 11:51:08;;;;;;;9.30;7.78;;;32.70;98.50;;;33.49;49.85;98427.91;10430213;28;20607;-68
2023/08/21 11:56:13;;;;;;;8.88;7.97;;;32.70;99.10;;;33.44;49.42;98421.84;10429709;28;20248;-68
2023/08/21 12:01:19;;;;;;;8.57;7.80;;;32.60;98.60;;;33.45;50.83;98423.56;10428132;28;20236;-68
2023/08/21 12:06:26;;;;;;;8.68;7.97;;;32.50;99.70;;;33.55;49.76;98419.81;10423778;28;20258;-68
2023/08/21 12:11:30;;;;;;;8.52;7.72;;;32.70;98.90;;;33.41;50.59;98414.81;10418911;28;20240;-68
2023/08/21 12:16:33;;;;;;;8.18;7.40;;;32.60;99.50;;;33.29;51.19;98412.50;10414480;28;20225;-68
2023/08/21 12:21:38;;;;;;;8.45;7.85;;;32.40;99.90;;;33.25;50.16;98404.66;10420197;28;20319;-67
2023/08/21 12:26:41;;;;;;;8.70;8.00;;;32.30;99.30;;;33.19;50.43;98413.63;10419166;28;20824;-68
2023/08/21 12:31:52;;;;;;;8.80;8.05;;;32.30;99.30;;;33.43;48.21;98405.06;10425810;28;20626;-68
2023/08/21 12:36:57;;;;;;;9.05;8.18;;;32.50;97.70;;;33.32;48.32;98408.91;10428243;28;20232;-69
2023/08/21 12:42:00;;;;;;;8.68;8.00;;;32.30;97.90;;;33.29;47.85;98406.34;10426420;28;20228;-68
2023/08/21 12:47:03;;;;;;;9.18;8.50;;;32.30;97.60;;;33.12;48.21;98407.63;10425422;28;20672;-68
2023/08/21 12:52:08;;;;;;;9.27;8.43;;;32.20;98.00;;;33.13;48.88;98390.81;10428052;28;20232;-69
2023/08/21 12:57:13;;;;;;;9.45;8.65;;;32.10;98.50;;;32.93;50.19;98390.41;10419693;28;20232;-68
2023/08/21 13:02:16;;;;;;;9.85;9.00;;;32.00;99.10;;;33.04;50.83;98393.69;10425992;28;20733;-68
2023/08/21 13:07:21;;;;;;;9.07;8.38;;;32.10;99.00;;;33.16;49.71;98382.78;10429863;28;20651;-68
2023/08/21 13:12:24;;;;;;;9.15;8.25;;;32.40;98.10;;;32.87;50.88;98377.31;10431866;28;20441;-68
2023/08/21 13:17:27;;;;;;;9.82;8.88;;;32.00;99.50;;;33.05;49.18;98363.66;10431198;28;20239;-68
2023/08/21 13:22:45;;;;;;;9.02;8.32;;;32.10;98.20;;;33.00;48.69;98362.91;10428909;28;20846;-69
2023/08/21 13:27:49;;;;;;;9.18;8.40;;;32.10;97.60;;;33.14;49.47;98366.06;10431326;28;20231;-69
2023/08/21 13:32:52;;;;;;;8.85;8.05;;;32.10;98.30;;;33.12;48.89;98359.94;10442396;28;20235;-69
2023/08/21 13:37:57;;;;;;;8.82;8.02;;;32.00;97.70;;;32.93;47.99;98354.19;10428200;28;20232;-69
2023/08/21 13:43:00;;;;;;;8.80;8.00;;;31.90;97.60;;;32.93;50.64;98345.38;10430047;28;20742;-70
2023/08/21 13:48:06;;;;;;;8.85;8.05;;;31.90;99.10;;;32.84;49.68;98337.66;10425977;28;20228;-70
2023/08/21 13:53:10;;;;;;;9.10;8.35;;;31.90;97.80;;;32.79;49.27;98326.31;10429472;28;20220;-70
2023/08/21 13:58:14;;;;;;;8.63;7.80;;;31.90;98.20;;;32.67;48.77;98328.34;10427510;28;20579;-69
2023/08/21 14:03:17;;;;;;;8.88;8.07;;;31.80;97.50;;;32.65;48.00;98332.84;10429176;28;20236;-69
2023/08/21 14:08:21;;;;;;;8.20;7.50;;;31.80;96.80;;;32.65;49.84;98326.63;10430227;28;20600;-69
2023/08/21 14:13:25;;;;;;;9.05;8.15;;;31.80;98.00;;;32.64;48.72;98325.78;10427205;28;20237;-69
2023/08/21 14:18:28;;;;;;;8.18;7.57;;;31.80;97.30;;;32.42;47.11;98316.56;10425711;28;20229;-70
2023/08/21 14:23:32;;;;;;;8.35;7.63;;;31.60;95.90;;;32.35;48.79;98320.28;10428160;28;20229;-69
2023/08/21 14:28:36;;;;;;;8.85;7.50;;;31.50;97.10;;;32.24;48.24;98305.50;10426996;28;20653;-68
2023/08/21 14:33:39;;;;;;;8.23;7.35;;;31.40;96.70;;;32.26;50.22;98311.66;10431981;28;20232;-69
2023/08/21 14:38:44;;;;;;;8.80;8.00;;;31.30;97.90;;;32.24;49.76;98308.16;10436411;28;20818;-68
2023/08/21 14:43:47;;;;;;;8.68;7.88;;;31.30;97.60;;;32.27;50.08;98308.09;10429517;28;20683;-69
2023/08/21 14:48:50;;;;;;;8.27;7.57;;;31.30;98.20;;;32.35;49.50;98299.13;10426654;28;20232;-69
2023/08/21 14:53:54;;;;;;;8.07;7.38;;;31.30;98.00;;;32.36;49.58;98298.19;10425435;28;20236;-68
2023/08/21 14:58:58;;;;;;;7.68;7.07;;;31.40;97.30;;;32.31;50.18;98293.88;10424634;28;20224;-69
2023/08/21 15:04:01;;;;;;;8.23;7.43;;;31.30;97.80;;;32.15;49.96;98295.16;10416104;28;20236;-68
2023/08/21 15:09:06;;;;;;;7.25;6.65;;;31.20;97.70;;;32.13;47.90;98296.09;10432244;28;20221;-69
2023/08/21 15:14:11;;;;;;;7.30;6.70;;;31.20;96.10;;;32.13;46.79;98289.00;10423643;28;20236;-70
2023/08/21 15:19:15;;;;;;;8.65;6.85;;;31.20;95.30;;;32.11;46.38;98292.59;10421273;28;20225;-70
2023/08/21 15:24:19;;;;;;;7.28;6.50;;;31.20;95.00;;;32.14;47.19;98280.19;10412972;28;20266;-68
2023/08/21 15:29:23;;;;;;;6.60;6.05;;;31.20;95.50;;;32.14;45.67;98280.19;10419443;28;20228;-68
2023/08/21 15:34:26;;;;;;;7.13;6.35;;;31.20;94.60;;;32.11;47.33;98280.25;10417335;28;20235;-68
2023/08/21 15:39:30;;;;;;;7.90;7.10;;;31.30;95.80;;;32.09;48.90;98272.34;10421882;28;20224;-68
2023/08/21 15:44:33;;;;;;;8.32;7.47;;;31.10;96.50;;;32.15;48.87;98263.41;10417946;28;20221;-68
2023/08/21 15:49:37;;;;;;;8.15;7.35;;;31.20;96.60;;;32.08;48.58;98267.09;10419479;28;20732;-68
2023/08/21 15:54:41;;;;;;;7.50;6.82;;;31.10;96.70;;;32.02;49.03;98254.88;10422441;28;20232;-69
2023/08/21 15:59:44;;;;;;;7.13;6.53;;;31.10;97.10;;;31.94;49.06;98266.53;10414074;28;20233;-68
2023/08/21 16:04:47;;;;;;;7.57;6.97;;;31.10;96.90;;;31.93;49.83;98249.78;10420110;28;20235;-68
2023/08/21 16:09:52;;;;;;;8.27;7.43;;;31.00;97.30;;;31.79;49.27;98252.72;10419409;28;20716;-68
2023/08/21 16:14:55;;;;;;;7.38;6.72;;;30.90;96.70;;;31.82;49.68;98242.06;10415392;28;20577;-68
2023/08/21 16:20:02;;;;;;;7.30;6.78;;;30.80;97.10;;;31.68;50.00;98243.25;10418996;28;20235;-69
2023/08/21 16:25:08;;;;;;;7.78;7.03;;;30.70;97.50;;;31.63;49.88;98248.66;10415379;28;20224;-69
2023/08/21 16:30:12;;;;;;;7.85;6.50;;;30.60;97.30;;;31.56;49.31;98244.41;10414229;28;20225;-70
2023/08/21 16:35:15;;;;;;;7.53;6.93;;;30.60;96.90;;;31.52;49.79;98243.59;10427268;28;20225;-67
2023/08/21 16:40:23;;;;;;;7.43;6.82;;;30.50;97.20;;;31.44;50.33;98245.53;10426985;28;20259;-69
2023/08/21 16:45:26;;;;;;;7.15;6.55;;;30.40;97.50;;;31.31;51.18;98249.31;10432423;28;20659;-69
2023/08/21 16:50:29;;;;;;;7.13;6.50;;;30.30;98.10;;;31.22;51.63;98246.81;10432155;28;20311;-69
2023/08/21 16:55:34;;;;;;;6.97;6.18;;;30.20;98.00;;;31.11;52.68;98249.69;10429696;28;20238;-68
2023/08/21 17:00:37;;;;;;;6.43;5.97;;;30.10;99.50;;;30.97;53.80;98252.59;10430839;28;20229;-69
2023/08/21 17:05:40;;;;;;;6.90;6.40;;;29.90;99.90;;;30.86;53.74;98246.63;10434190;28;20224;-70
2023/08/21 17:10:45;;;;;;;6.97;6.35;;;29.80;99.90;;;30.72;54.65;98250.34;10429258;28;20238;-69
2023/08/21 17:15:48;;;;;;;6.80;6.28;;;29.60;99.90;;;30.61;54.84;98251.44;10431493;28;20224;-70
2023/08/21 17:20:55;;;;;;;7.55;6.85;;;29.50;99.90;;;30.51;55.02;98245.44;10442376;28;20291;-70
2023/08/21 17:25:59;;;;;;;6.88;6.28;;;29.40;99.90;;;30.40;56.59;98250.03;10439178;28;20723;-70
2023/08/21 17:31:02;;;;;;;6.47;6.00;;;29.30;99.90;;;30.27;57.44;98254.63;10438342;28;20232;-69
2023/08/21 17:36:06;;;;;;;6.82;6.22;;;29.20;99.90;;;30.12;59.91;98252.19;10441260;28;20232;-70
2023/08/21 17:41:10;;;;;;;7.50;6.90;;;29.10;99.90;;;29.96;60.91;98252.44;10442463;28;20414;-69
2023/08/21 17:46:16;;;;;;;7.70;7.00;;;28.90;99.90;;;29.84;61.69;98252.56;10435877;28;20228;-69
2023/08/21 17:51:19;;;;;;;8.45;7.68;;;28.80;99.90;;;29.66;64.76;98252.84;10421638;28;20394;-69
2023/08/21 17:56:24;;;;;;;8.18;7.38;;;28.60;99.90;;;29.44;67.63;98250.44;10429304;28;20266;-70
2023/08/21 18:01:27;;;;;;;7.63;6.93;;;28.40;99.90;;;29.21;69.58;98252.47;10422186;28;20612;-69
2023/08/21 18:06:31;;;;;;;7.90;7.20;;;28.10;99.90;;;29.04;71.56;98252.66;10425000;28;20236;-69
2023/08/21 18:11:35;;;;;;;8.15;7.45;;;28.00;99.90;;;28.88;74.34;98251.91;10422660;28;20232;-69
2023/08/21 18:16:38;;;;;;;7.95;7.25;;;27.80;99.90;;;28.67;74.48;98258.22;10419841;28;20244;-69
2023/08/21 18:21:42;;;;;;;8.52;7.80;;;27.60;99.90;;;28.52;75.37;98262.75;10425819;28;20237;-69
2023/08/21 18:26:47;;;;;;;8.27;7.63;;;27.50;99.90;;;28.38;76.60;98266.34;10430551;28;20232;-69
2023/08/21 18:31:50;;;;;;;9.35;8.30;;;27.30;99.90;;;28.23;77.03;98262.94;10415146;28;20612;-69
2023/08/21 18:36:54;;;;;;;10.50;9.50;;;27.20;99.90;;;28.07;79.74;98271.81;10426390;28;20708;-69
2023/08/21 18:41:58;;;;;;;9.15;8.05;;;27.00;99.90;;;28.07;79.80;98274.44;10413530;28;20232;-68
2023/08/21 18:47:01;;;;;;;9.10;8.20;;;26.90;99.90;;;27.91;80.37;98286.81;10428343;28;20228;-68
2023/08/21 18:52:05;;;;;;;8.55;7.78;;;26.80;99.90;;;27.71;80.79;98289.50;10422183;28;20228;-69
2023/08/21 18:57:10;;;;;;;8.65;7.85;;;26.70;99.90;;;27.58;81.50;98293.91;10428001;28;20599;-69
2023/08/21 19:02:14;;;;;;;8.57;7.78;;;26.50;99.90;;;27.40;82.75;98305.38;10429486;28;20615;-70
2023/08/21 19:07:18;;;;;;;9.10;8.30;;;26.40;99.90;;;27.19;84.75;98305.44;10413594;28;20221;-69
2023/08/21 19:12:22;;;;;;;8.90;8.00;;;26.20;99.90;;;27.10;84.26;98313.25;10424267;28;20228;-69
2023/08/21 19:17:26;;;;;;;9.02;8.20;;;26.10;99.90;;;26.98;85.23;98308.91;10422572;28;20594;-70
2023/08/21 19:22:29;;;;;;;9.32;8.52;;;26.00;99.90;;;26.83;85.67;98311.56;10423361;28;20234;-71
2023/08/21 19:27:34;;;;;;;9.20;8.35;;;25.80;99.90;;;26.81;86.19;98305.44;10416773;28;20673;-70
2023/08/21 19:32:37;;;;;;;8.35;7.65;;;25.80;99.90;;;26.72;86.90;98298.44;10420851;28;20444;-69
2023/08/21 19:37:40;;;;;;;10.18;8.60;;;25.60;99.90;;;26.56;85.90;98308.06;10420264;28;20235;-69
2023/08/21 19:42:45;;;;;;;9.20;8.30;;;25.60;99.90;;;26.51;86.48;98299.31;10418879;28;20614;-70
2023/08/21 19:47:49;;;;;;;9.05;8.32;;;25.60;99.90;;;26.40;87.96;98306.28;10422314;28;20267;-69
2023/08/21 19:52:52;;;;;;;9.55;8.35;;;25.40;99.90;;;26.27;89.11;98305.41;10419246;28;20743;-70
2023/08/21 19:57:57;;;;;;;9.75;8.75;;;25.30;99.90;;;26.15;90.36;98305.34;10421864;28;20579;-68
2023/08/21 20:03:00;;;;;;;10.10;9.10;;;25.10;99.90;;;26.20;91.64;98306.25;10415784;28;20600;-70
2023/08/21 20:08:04;;;;;;;9.10;8.35;;;25.10;99.90;;;26.15;91.37;98310.59;10422479;28;20334;-70
2023/08/21 20:13:08;;;;;;;9.15;8.35;;;25.10;99.90;;;25.89;91.28;98313.16;10429476;28;20625;-70
2023/08/21 20:18:12;;;;;;;9.95;8.95;;;24.90;99.90;;;25.80;91.97;98319.19;10429128;28;20339;-70
2023/08/21 20:23:15;;;;;;;10.75;9.95;;;24.80;99.90;;;25.73;92.34;98327.91;10427866;28;20224;-70
2023/08/21 20:28:20;;;;;;;10.93;9.93;;;24.80;99.90;;;25.69;93.61;98326.13;10430692;28;20608;-69
2023/08/21 20:33:23;;;;;;;10.30;9.45;;;24.80;99.90;;;25.66;92.94;98321.75;10426701;28;20307;-68
2023/08/21 20:38:27;;;;;;;10.73;9.73;;;24.70;99.90;;;25.56;94.39;98328.69;10427233;28;20225;-69
2023/08/21 20:43:33;;;;;;;10.18;9.27;;;24.60;99.90;;;25.49;93.69;98326.91;10427336;28;20228;-69
2023/08/21 20:48:36;;;;;;;11.30;10.30;;;24.50;99.90;;;25.36;95.33;98328.59;10426170;28;20227;-70